Terminal Aerodrome Forecast
Issued by NWS Boston, MA

Home | Current Version | Previous Version | Text Only | Print | Product List | Glossary On
Versions: 1 2 3 4 5 6 7 8 9 10 11 12 13 14 15 16 17 18 19 20 21 22 23 24 25 26 27 28 29 30 31 32 33 34 35 36 37 38 39 40 41 42 43 44
000
FTUS41 KBOX 260541 AAC
TAFPVD
TAF AMD
KPVD 260541Z 2606/2706 16005KT 3/4SM -SHRA BR OVC002
     FM260800 16005KT 1/2SM FG VCSH OVC002
     FM261100 21005KT 3/4SM BR OVC003
     FM261300 24007KT P6SM BKN003
     FM261400 26008KT P6SM BKN020
     FM261500 27009KT P6SM SCT050=

USA.gov is the U.S. government's official web portal to all federal, state and local government web resources and services.